createdAt,value
2022-08-05T00:00:00.333Z,12.77
2022-08-05T00:02:28.733Z,9.20
2022-08-05T00:04:57.273Z,8.73
2022-08-05T00:07:59.231Z,7.20
2022-08-05T00:10:12.614Z,8.48
2022-08-05T00:12:56.541Z,7.63
2022-08-05T00:15:57.704Z,8.43
2022-08-05T00:18:21.742Z,8.30
2022-08-05T00:20:50.945Z,9.50
2022-08-05T00:23:44.396Z,11.82
2022-08-05T00:26:06.564Z,8.23
2022-08-05T00:28:34.486Z,5.70
2022-08-05T00:31:04.731Z,6.40
2022-08-05T00:34:53.194Z,6.97
2022-08-05T00:37:11.306Z,5.65
2022-08-05T00:39:13.986Z,4.53
2022-08-05T00:41:52.116Z,6.35
2022-08-05T00:44:30.797Z,7.88
2022-08-05T00:47:03.723Z,11.20
2022-08-05T00:49:50.996Z,7.88
2022-08-05T00:52:28.389Z,8.75
2022-08-05T00:54:56.656Z,7.72
2022-08-05T00:57:31.721Z,8.48
2022-08-05T01:00:16.877Z,8.27
2022-08-05T01:02:44.518Z,9.82
2022-08-05T01:05:13.126Z,9.68
2022-08-05T01:08:29.927Z,9.02
2022-08-05T01:10:52.724Z,8.85
2022-08-05T01:13:58.390Z,10.75
2022-08-05T01:16:45.236Z,8.65
2022-08-05T01:19:19.044Z,11.30
2022-08-05T01:22:02.057Z,10.43
2022-08-05T01:24:32.477Z,10.10
2022-08-05T01:27:19.305Z,12.00
2022-08-05T01:29:49.719Z,12.57
2022-08-05T01:32:21.507Z,10.65
2022-08-05T01:34:54.205Z,11.38
2022-08-05T01:37:44.197Z,11.23
2022-08-05T01:40:12.725Z,14.25
2022-08-05T01:42:42.083Z,10.52
2022-08-05T01:45:09.565Z,9.38
2022-08-05T01:47:39.612Z,11.60
2022-08-05T01:50:19.554Z,10.70
2022-08-05T01:52:57.282Z,8.13
2022-08-05T01:55:25.491Z,11.43
2022-08-05T01:58:13.083Z,13.30
2022-08-05T02:00:50.962Z,13.32
2022-08-05T02:03:28.893Z,8.45
2022-08-05T02:06:03.361Z,11.52
2022-08-05T02:08:44.762Z,11.15
2022-08-05T02:11:33.436Z,7.90
2022-08-05T02:14:17.623Z,8.60
2022-08-05T02:16:52.445Z,10.10
2022-08-05T02:19:21.129Z,7.47
2022-08-05T02:22:02.684Z,9.82
2022-08-05T02:24:36.930Z,9.18
2022-08-05T02:27:09.931Z,9.25
2022-08-05T02:29:58.477Z,8.25
2022-08-05T02:32:30.967Z,11.15
2022-08-05T02:35:22.048Z,9.52
2022-08-05T02:37:59.087Z,10.63
2022-08-05T02:40:27.810Z,9.23
2022-08-05T02:42:56.376Z,8.15
2022-08-05T02:45:25.208Z,7.75
2022-08-05T02:48:11.803Z,12.18
2022-08-05T02:50:47.154Z,11.07
2022-08-05T02:53:19.409Z,8.32
2022-08-05T02:55:59.813Z,7.97
2022-08-05T02:58:51.511Z,10.60
2022-08-05T03:04:58.421Z,11.18
2022-08-05T03:08:01.930Z,8.82
2022-08-05T03:10:22.073Z,7.93
2022-08-05T03:12:54.238Z,8.57
2022-08-05T03:15:23.761Z,10.40
2022-08-05T03:17:53.854Z,10.30
2022-08-05T03:20:23.627Z,9.82
2022-08-05T03:22:52.477Z,10.93
2022-08-05T03:25:33.302Z,9.90
2022-08-05T03:28:11.488Z,9.50
2022-08-05T03:30:42.297Z,15.15
2022-08-05T03:33:10.289Z,14.50
2022-08-05T03:35:41.663Z,10.73
2022-08-05T03:38:11.938Z,11.05
2022-08-05T03:40:49.826Z,12.63
2022-08-05T03:44:08.461Z,15.35
2022-08-05T03:46:08.081Z,16.75
2022-08-05T03:48:36.956Z,14.77
2022-08-05T03:52:38.612Z,14.48
2022-08-05T03:55:50.632Z,12.13
2022-08-05T03:57:16.713Z,14.77
2022-08-05T03:59:54.844Z,15.18
2022-08-05T04:02:37.818Z,13.40
2022-08-05T04:05:09.954Z,19.23
2022-08-05T04:07:58.276Z,15.82
2022-08-05T04:10:37.143Z,14.68
2022-08-05T04:13:06.408Z,14.95
2022-08-05T04:15:36.073Z,13.05
2022-08-05T04:18:09.270Z,17.40
2022-08-05T04:20:37.288Z,15.50
2022-08-05T04:23:05.793Z,19.17
2022-08-05T04:26:00.481Z,16.83
2022-08-05T04:28:30.646Z,15.68
2022-08-05T04:30:58.845Z,21.83
2022-08-05T04:34:19.378Z,15.85
2022-08-05T04:36:45.409Z,15.52
2022-08-05T04:39:04.431Z,14.52
2022-08-05T04:41:37.687Z,13.68
2022-08-05T04:44:09.357Z,14.07
2022-08-05T04:46:37.645Z,17.42
2022-08-05T04:49:06.242Z,18.10
2022-08-05T04:51:42.089Z,15.82
2022-08-05T04:54:11.967Z,15.93
2022-08-05T04:56:40.076Z,16.73
2022-08-05T04:59:17.452Z,19.67
2022-08-05T05:02:35.135Z,17.25
2022-08-05T05:04:47.557Z,13.85
2022-08-05T05:07:16.103Z,15.90
2022-08-05T05:09:45.338Z,17.98
2022-08-05T05:12:12.996Z,15.32
2022-08-05T05:14:49.313Z,15.95
2022-08-05T05:17:23.536Z,16.85
2022-08-05T05:19:54.495Z,15.32
2022-08-05T05:22:24.688Z,14.88
2022-08-05T05:24:57.688Z,15.82
2022-08-05T05:27:44.254Z,14.10
2022-08-05T05:30:29.592Z,16.23
2022-08-05T05:33:16.423Z,14.30
2022-08-05T05:35:46.063Z,14.32
2022-08-05T05:38:14.822Z,13.40
2022-08-05T05:40:51.924Z,14.75
2022-08-05T05:43:54.129Z,16.17
2022-08-05T05:46:17.685Z,11.40
2022-08-05T05:48:49.138Z,14.98
2022-08-05T05:51:20.971Z,15.07
2022-08-05T05:53:57.409Z,12.18
2022-08-05T05:56:32.782Z,10.70
2022-08-05T05:59:03.503Z,12.50
2022-08-05T06:01:36.956Z,14.80
2022-08-05T06:04:07.760Z,12.02
2022-08-05T06:06:35.593Z,16.10
2022-08-05T06:09:07.660Z,10.48
2022-08-05T06:11:39.302Z,12.13
2022-08-05T06:14:07.474Z,12.93
2022-08-05T06:16:37.285Z,12.32
2022-08-05T06:19:09.246Z,12.40
2022-08-05T06:21:42.243Z,10.57
2022-08-05T06:24:17.030Z,11.38
2022-08-05T06:26:53.383Z,10.50
2022-08-05T06:29:48.993Z,7.30
2022-08-05T06:32:24.921Z,12.90
2022-08-05T06:34:56.268Z,8.82
2022-08-05T06:37:56.037Z,13.27
2022-08-05T06:40:13.637Z,8.85
2022-08-05T06:42:41.603Z,7.20
2022-08-05T06:45:09.785Z,13.93
2022-08-05T06:48:36.778Z,9.75
2022-08-05T06:50:36.604Z,8.63
2022-08-05T06:53:19.638Z,9.70
2022-08-05T06:55:50.300Z,10.45
2022-08-05T06:58:30.098Z,10.07
2022-08-05T07:01:04.520Z,10.23
2022-08-05T07:03:33.346Z,8.02
2022-08-05T07:06:06.045Z,9.10
2022-08-05T07:08:42.144Z,14.23
2022-08-05T07:11:15.503Z,9.95
2022-08-05T07:14:02.478Z,9.77
2022-08-05T07:17:58.903Z,8.25
2022-08-05T07:22:27.772Z,8.27
2022-08-05T07:24:57.329Z,8.63
2022-08-05T07:27:27.431Z,8.75
2022-08-05T07:30:24.592Z,6.45
2022-08-05T07:32:53.446Z,9.85
2022-08-05T07:36:03.870Z,8.30
2022-08-05T07:38:12.399Z,5.97
2022-08-05T07:41:01.618Z,7.40
2022-08-05T07:43:44.513Z,8.98
2022-08-05T07:46:23.506Z,6.70
2022-08-05T07:49:03.591Z,7.25
2022-08-05T07:51:48.615Z,7.90
2022-08-05T07:54:30.348Z,7.80
2022-08-05T07:57:22.425Z,7.10
2022-08-05T07:59:52.221Z,10.20
2022-08-05T08:02:26.617Z,9.82
2022-08-05T08:04:58.288Z,6.88
2022-08-05T08:07:28.470Z,8.30
2022-08-05T08:09:56.523Z,7.68
2022-08-05T08:12:35.182Z,6.68
2022-08-05T08:15:15.424Z,5.43
2022-08-05T08:17:49.621Z,7.43
2022-08-05T08:20:45.344Z,7.75
2022-08-05T08:24:00.377Z,5.80
2022-08-05T08:26:00.698Z,8.57
2022-08-05T08:28:37.139Z,8.75
2022-08-05T08:31:14.606Z,9.57
2022-08-05T08:33:45.606Z,8.77
2022-08-05T08:36:29.451Z,8.70
2022-08-05T08:39:15.512Z,5.95
2022-08-05T08:41:59.618Z,9.98
2022-08-05T08:45:23.564Z,4.70
2022-08-05T08:48:05.437Z,8.63
2022-08-05T08:50:32.048Z,5.72
2022-08-05T08:53:12.280Z,11.13
2022-08-05T08:56:02.650Z,9.80
2022-08-05T08:58:43.475Z,9.32
2022-08-05T09:01:16.968Z,8.50
2022-08-05T09:03:55.300Z,8.68
2022-08-05T09:06:29.162Z,7.70
2022-08-05T09:12:42.470Z,4.28
2022-08-05T09:15:10.400Z,4.90
2022-08-05T09:17:45.691Z,3.65
2022-08-05T09:20:36.390Z,3.60
2022-08-05T09:23:05.132Z,4.00
2022-08-05T09:25:59.991Z,3.70
2022-08-05T09:28:31.455Z,3.67
2022-08-05T09:31:22.366Z,11.35
2022-08-05T09:33:58.544Z,4.43
2022-08-05T09:36:39.084Z,3.45
2022-08-05T09:39:41.470Z,2.65
2022-08-05T09:42:17.643Z,4.00
2022-08-05T09:44:56.163Z,2.95
2022-08-05T09:47:48.398Z,4.45
2022-08-05T09:50:38.266Z,4.30
2022-08-05T09:53:08.889Z,3.30
2022-08-05T09:55:58.036Z,3.45
2022-08-05T09:58:29.145Z,4.00
2022-08-05T10:01:15.449Z,3.20
2022-08-05T10:04:10.581Z,2.92
2022-08-05T10:06:40.480Z,4.72
2022-08-05T10:09:27.255Z,3.85
2022-08-05T10:11:55.275Z,4.55
2022-08-05T10:14:23.927Z,3.90
2022-08-05T10:16:57.376Z,2.97
2022-08-05T10:20:03.022Z,4.32
2022-08-05T10:22:15.716Z,3.05
2022-08-05T10:24:56.984Z,2.35
2022-08-05T10:27:26.208Z,4.88
2022-08-05T10:31:20.936Z,2.15
2022-08-05T10:33:02.926Z,3.88
2022-08-05T10:35:40.506Z,3.47
2022-08-05T10:38:15.526Z,4.13
2022-08-05T10:40:58.484Z,3.78
2022-08-05T10:43:35.838Z,3.05
2022-08-05T10:46:07.226Z,5.10
2022-08-05T10:48:57.848Z,2.15
2022-08-05T10:51:29.353Z,2.25
2022-08-05T10:54:00.742Z,1.23
2022-08-05T10:56:31.719Z,2.72
2022-08-05T10:59:07.357Z,4.10
2022-08-05T11:02:07.568Z,2.90
2022-08-05T11:04:46.356Z,2.63
2022-08-05T11:07:16.801Z,3.42
2022-08-05T11:09:46.730Z,3.05
2022-08-05T11:12:33.639Z,3.63
2022-08-05T11:15:20.125Z,2.67
2022-08-05T11:18:09.562Z,3.35
2022-08-05T11:20:44.267Z,3.90
2022-08-05T11:23:33.530Z,4.78
2022-08-05T11:26:08.784Z,4.10
2022-08-05T11:28:36.961Z,4.63
2022-08-05T11:31:06.100Z,2.78
2022-08-05T11:33:46.062Z,7.05
2022-08-05T11:36:15.146Z,7.20
2022-08-05T11:39:01.598Z,3.00
2022-08-05T11:41:58.329Z,2.72
2022-08-05T11:44:40.780Z,3.20
2022-08-05T11:47:14.130Z,3.58
2022-08-05T11:49:49.712Z,2.17
2022-08-05T11:52:29.297Z,2.95
2022-08-05T11:55:07.502Z,1.80
2022-08-05T11:58:08.610Z,2.58
2022-08-05T12:00:30.195Z,2.53
2022-08-05T12:02:58.147Z,6.32
2022-08-05T12:05:36.115Z,6.68
2022-08-05T12:08:09.758Z,7.90
2022-08-05T12:10:45.519Z,4.30
2022-08-05T12:13:27.648Z,4.90
2022-08-05T12:16:14.755Z,3.90
2022-08-05T12:18:52.787Z,1.40
2022-08-05T12:21:29.809Z,2.42
2022-08-05T12:24:10.913Z,2.08
2022-08-05T12:26:43.987Z,3.40
2022-08-05T12:29:17.877Z,4.20
2022-08-05T12:31:54.748Z,3.38
2022-08-05T12:34:25.880Z,3.15
2022-08-05T12:36:54.254Z,7.50
2022-08-05T12:39:23.717Z,2.05
2022-08-05T12:42:00.012Z,3.55
2022-08-05T12:44:33.215Z,1.80
2022-08-05T12:47:01.813Z,1.73
2022-08-05T12:50:03.253Z,4.00
2022-08-05T12:52:37.746Z,2.92
2022-08-05T12:55:18.924Z,4.00
2022-08-05T12:58:51.067Z,3.67
2022-08-05T13:02:02.361Z,1.13
2022-08-05T13:03:32.539Z,3.25
2022-08-05T13:06:01.201Z,1.15
2022-08-05T13:08:32.624Z,4.10
2022-08-05T13:11:02.335Z,4.20
2022-08-05T13:14:06.426Z,3.22
2022-08-05T13:16:20.436Z,5.50
2022-08-05T13:18:53.143Z,2.20
2022-08-05T13:21:28.290Z,2.13
2022-08-05T13:24:08.971Z,2.58
2022-08-05T13:26:37.397Z,5.45
2022-08-05T13:29:05.511Z,3.50
2022-08-05T13:32:03.311Z,3.38
2022-08-05T13:34:26.033Z,4.18
2022-08-05T13:36:54.759Z,2.38
2022-08-05T13:39:24.630Z,2.28
2022-08-05T13:42:14.311Z,4.25
2022-08-05T13:44:45.333Z,4.20
2022-08-05T13:47:34.764Z,9.73
2022-08-05T13:50:01.297Z,1.85
2022-08-05T13:52:35.197Z,2.83
2022-08-05T13:55:07.891Z,2.83
2022-08-05T13:57:50.678Z,1.75
2022-08-05T14:00:19.170Z,2.03
2022-08-05T14:02:54.789Z,2.05
2022-08-05T14:05:48.494Z,1.75
2022-08-05T14:08:20.530Z,1.35
2022-08-05T14:10:59.652Z,2.55
2022-08-05T14:13:32.282Z,5.03
2022-08-05T14:16:09.127Z,2.67
2022-08-05T14:18:38.978Z,2.42
2022-08-05T14:22:06.714Z,2.63
2022-08-05T14:23:54.378Z,1.90
2022-08-05T14:26:36.812Z,7.35
2022-08-05T14:29:16.137Z,2.47
2022-08-05T14:32:03.541Z,3.65
2022-08-05T14:34:35.872Z,1.88
2022-08-05T14:37:04.082Z,1.95
2022-08-05T14:39:49.311Z,1.90
2022-08-05T14:42:21.964Z,2.97
2022-08-05T14:44:49.982Z,1.63
2022-08-05T14:47:23.984Z,1.95
2022-08-05T14:50:17.861Z,1.58
2022-08-05T14:52:58.743Z,2.03
2022-08-05T14:55:38.671Z,2.60
2022-08-05T14:58:12.059Z,1.58
2022-08-05T15:00:57.948Z,2.30
2022-08-05T15:03:33.818Z,2.72
2022-08-05T15:06:12.705Z,1.55
2022-08-05T15:09:01.088Z,1.95
2022-08-05T15:11:51.556Z,1.98
2022-08-05T15:14:33.406Z,1.50
2022-08-05T15:17:01.917Z,2.30
2022-08-05T15:19:31.636Z,1.42
2022-08-05T15:22:01.409Z,2.38
2022-08-05T15:24:29.594Z,2.33
2022-08-05T15:26:58.411Z,1.70
2022-08-05T15:29:30.128Z,3.45
2022-08-05T15:32:02.991Z,1.05
2022-08-05T15:34:31.952Z,1.38
2022-08-05T15:37:06.076Z,1.58
2022-08-05T15:41:02.072Z,1.90
2022-08-05T15:42:53.498Z,5.03
2022-08-05T15:45:11.601Z,3.63
2022-08-05T15:47:39.416Z,4.05
2022-08-05T15:50:08.272Z,3.78
2022-08-05T15:52:53.542Z,1.48
2022-08-05T15:55:24.821Z,3.75
2022-08-05T15:58:16.450Z,4.78
2022-08-05T16:01:03.452Z,2.15
2022-08-05T16:03:32.816Z,4.70
2022-08-05T16:06:02.342Z,2.05
2022-08-05T16:08:30.611Z,5.07
2022-08-05T16:10:58.741Z,1.77
2022-08-05T16:13:32.036Z,0.90
2022-08-05T16:16:01.742Z,2.13
2022-08-05T16:18:32.922Z,4.45
2022-08-05T16:21:04.302Z,1.67
2022-08-05T16:23:54.036Z,2.22
2022-08-05T16:26:26.596Z,2.92
2022-08-05T16:28:54.821Z,1.30
2022-08-05T16:31:22.504Z,1.52
2022-08-05T16:33:52.375Z,4.03
2022-08-05T16:36:24.059Z,4.25
2022-08-05T16:38:55.045Z,3.38
2022-08-05T16:42:27.731Z,3.50
2022-08-05T16:44:12.901Z,3.72
2022-08-05T16:46:41.536Z,3.53
2022-08-05T16:49:23.751Z,2.47
2022-08-05T16:51:56.943Z,2.25
2022-08-05T16:54:28.870Z,3.08
2022-08-05T16:56:59.513Z,3.65
2022-08-05T16:59:27.817Z,3.05
2022-08-05T17:01:59.615Z,3.13
2022-08-05T17:04:28.916Z,1.02
2022-08-05T17:07:03.174Z,3.58
2022-08-05T17:09:57.657Z,2.20
2022-08-05T17:12:22.346Z,3.10
2022-08-05T17:14:50.636Z,2.42
2022-08-05T17:17:19.702Z,4.18
2022-08-05T17:19:53.851Z,4.13
2022-08-05T17:22:28.008Z,3.65
2022-08-05T17:24:57.957Z,2.88
2022-08-05T17:27:27.167Z,6.43
2022-08-05T17:30:02.542Z,2.72
2022-08-05T17:32:33.825Z,4.00
2022-08-05T17:35:03.094Z,3.00
2022-08-05T17:37:40.020Z,2.42
2022-08-05T17:40:12.372Z,4.68
2022-08-05T17:42:43.054Z,4.68
2022-08-05T17:45:20.399Z,3.17
2022-08-05T17:47:53.932Z,2.17
2022-08-05T17:50:30.330Z,2.50
2022-08-05T17:53:04.770Z,7.90
2022-08-05T17:55:37.949Z,2.92
2022-08-05T17:58:11.291Z,3.22
2022-08-05T18:00:45.331Z,4.40
2022-08-05T18:06:11.974Z,7.35
2022-08-05T18:08:52.160Z,3.55
2022-08-05T18:11:23.717Z,2.58
2022-08-05T18:13:57.186Z,5.00
2022-08-05T18:16:28.448Z,4.88
2022-08-05T18:18:56.117Z,2.85
2022-08-05T18:21:26.450Z,5.75
2022-08-05T18:23:56.808Z,7.45
2022-08-05T18:26:27.482Z,4.13
2022-08-05T18:28:57.247Z,4.55
2022-08-05T18:31:25.837Z,5.35
2022-08-05T18:34:01.469Z,3.05
2022-08-05T18:36:29.751Z,6.78
2022-08-05T18:38:57.385Z,4.97
2022-08-05T18:41:56.360Z,3.30
2022-08-05T18:44:13.559Z,5.78
2022-08-05T18:47:01.334Z,3.38
2022-08-05T18:49:58.153Z,4.18
2022-08-05T18:52:36.191Z,6.47
2022-08-05T18:55:06.069Z,3.28
2022-08-05T18:57:50.037Z,2.83
2022-08-05T19:00:27.172Z,3.63
2022-08-05T19:02:57.782Z,3.25
2022-08-05T19:06:12.347Z,5.20
2022-08-05T19:08:19.101Z,4.07
2022-08-05T19:10:50.446Z,4.13
2022-08-05T19:13:19.781Z,3.05
2022-08-05T19:15:57.230Z,3.05
2022-08-05T19:18:28.792Z,4.85
2022-08-05T19:20:56.277Z,5.05
2022-08-05T19:24:06.525Z,3.50
2022-08-05T19:26:11.174Z,5.18
2022-08-05T19:28:43.405Z,2.45
2022-08-05T19:31:17.989Z,4.43
2022-08-05T19:33:48.723Z,2.30
2022-08-05T19:36:29.335Z,1.50
2022-08-05T19:39:00.996Z,3.83
2022-08-05T19:41:58.434Z,1.55
2022-08-05T19:44:18.484Z,2.25
2022-08-05T19:46:46.267Z,3.20
2022-08-05T19:49:16.618Z,1.67
2022-08-05T19:52:08.505Z,2.08
2022-08-05T19:54:34.302Z,2.65
2022-08-05T19:57:06.403Z,5.07
2022-08-05T20:00:00.500Z,3.45
2022-08-05T20:02:26.267Z,2.38
2022-08-05T20:04:58.917Z,1.33
2022-08-05T20:07:47.386Z,1.60
2022-08-05T20:10:14.726Z,3.00
2022-08-05T20:12:48.444Z,4.15
2022-08-05T20:15:48.177Z,2.75
2022-08-05T20:18:10.769Z,3.15
2022-08-05T20:20:55.828Z,3.00
2022-08-05T20:23:40.738Z,3.42
2022-08-05T20:26:16.116Z,3.28
2022-08-05T20:28:44.647Z,2.13
2022-08-05T20:31:12.187Z,4.43
2022-08-05T20:33:42.491Z,1.65
2022-08-05T20:36:11.338Z,4.70
2022-08-05T20:38:53.841Z,2.25
2022-08-05T20:41:27.045Z,3.30
2022-08-05T20:44:18.617Z,2.70
2022-08-05T20:46:56.855Z,2.58
2022-08-05T20:49:26.118Z,2.65
2022-08-05T20:51:54.767Z,2.72
2022-08-05T20:54:42.905Z,2.38
2022-08-05T20:57:42.348Z,3.10
2022-08-05T21:00:19.812Z,3.58
2022-08-05T21:02:56.048Z,2.65
2022-08-05T21:05:24.785Z,3.83
2022-08-05T21:07:52.599Z,2.67
2022-08-05T21:10:20.404Z,1.90
2022-08-05T21:12:57.803Z,2.45
2022-08-05T21:15:33.933Z,5.15
2022-08-05T21:18:02.025Z,4.03
2022-08-05T21:20:33.231Z,3.50
2022-08-05T21:23:01.037Z,5.45
2022-08-05T21:25:33.500Z,5.60
2022-08-05T21:28:02.517Z,4.72
2022-08-05T21:30:30.209Z,4.90
2022-08-05T21:32:58.761Z,3.90
2022-08-05T21:35:29.912Z,5.00
2022-08-05T21:38:13.340Z,6.50
2022-08-05T21:40:41.908Z,3.30
2022-08-05T21:43:24.302Z,2.25
2022-08-05T21:45:57.406Z,5.55
2022-08-05T21:48:31.733Z,5.45
2022-08-05T21:50:59.957Z,2.33
2022-08-05T21:53:28.009Z,3.65
2022-08-05T21:56:04.882Z,5.68
2022-08-05T21:58:34.041Z,4.65
2022-08-05T22:01:01.685Z,2.72
2022-08-05T22:03:48.974Z,3.53
2022-08-05T22:06:22.934Z,2.67
2022-08-05T22:08:52.046Z,3.55
2022-08-05T22:11:34.432Z,3.67
2022-08-05T22:14:19.470Z,3.97
2022-08-05T22:16:55.901Z,2.80
2022-08-05T22:20:00.131Z,3.92
2022-08-05T22:22:12.957Z,3.45
2022-08-05T22:25:00.529Z,3.08
2022-08-05T22:28:08.220Z,3.92
2022-08-05T22:30:32.457Z,1.58
2022-08-05T22:33:03.581Z,3.17
2022-08-05T22:35:47.841Z,3.60
2022-08-05T22:38:18.948Z,4.68
2022-08-05T22:40:49.504Z,5.80
2022-08-05T22:43:36.317Z,4.10
2022-08-05T22:46:11.849Z,4.20
2022-08-05T22:48:43.932Z,1.92
2022-08-05T22:51:15.923Z,4.30
2022-08-05T22:53:50.835Z,3.53
2022-08-05T22:56:30.362Z,2.33
2022-08-05T22:59:44.049Z,2.78
2022-08-05T23:02:05.800Z,3.35
2022-08-05T23:04:36.773Z,3.45
2022-08-05T23:07:05.352Z,3.20
2022-08-05T23:09:58.400Z,3.13
2022-08-05T23:12:24.482Z,5.57
2022-08-05T23:14:52.323Z,4.35
2022-08-05T23:17:34.143Z,6.70
2022-08-05T23:20:05.656Z,3.38
2022-08-05T23:22:37.837Z,2.55
2022-08-05T23:25:05.774Z,3.05
2022-08-05T23:27:42.372Z,3.75
2022-08-05T23:30:27.149Z,4.38
2022-08-05T23:32:57.625Z,2.75
2022-08-05T23:35:25.078Z,5.28
2022-08-05T23:37:56.343Z,4.93
2022-08-05T23:40:27.146Z,3.33
2022-08-05T23:42:55.074Z,4.03
2022-08-05T23:45:23.714Z,3.85
2022-08-05T23:47:53.626Z,3.80
2022-08-05T23:50:26.770Z,4.72
2022-08-05T23:52:56.189Z,4.45
2022-08-05T23:55:31.041Z,4.70
2022-08-05T23:57:58.799Z,3.78
